SAS415 ENZV-ENBR
Flight info
| Callsign | SAS415 |
|---|---|
| Flight time | 0h 19m |
| Altitude | 16000 |
| Route | ALUVA |
| Aircraft | A320/M-SDE3FGHIRWY/LB1 |
Departure
| Time | 2026-04-21 13:01 |
|---|---|
| Airport | Stavanger Airport, Sola (ENZV) |
Arrival
| Time | 2026-04-21 13:21 |
|---|---|
| Airport | Bergen Airport, Flesland (ENBR) |
| Time | Latitude | Longitude | Altitude | Speed | Heading |
|---|---|---|---|---|---|
| 2026-04-21 12:51 | 58.88129 | 5.63021 | 31 ft | 0 kts | 315° |
| 2026-04-21 12:55 | 58.88120 | 5.63039 | 25 ft | 3 kts | 315° |
| 2026-04-21 12:55 | 58.88108 | 5.63063 | 27 ft | 2 kts | 315° |
| 2026-04-21 12:55 | 58.88097 | 5.63084 | 28 ft | 2 kts | 315° |
| 2026-04-21 12:56 | 58.88093 | 5.63092 | 29 ft | 0 kts | 315° |
| 2026-04-21 12:57 | 58.88099 | 5.63099 | 30 ft | 2 kts | 28° |
| 2026-04-21 12:57 | 58.88095 | 5.63135 | 27 ft | 5 kts | 110° |
| 2026-04-21 12:57 | 58.88054 | 5.63176 | 28 ft | 9 kts | 178° |
| 2026-04-21 12:58 | 58.87980 | 5.63234 | 29 ft | 14 kts | 135° |
| 2026-04-21 12:58 | 58.87898 | 5.63303 | 30 ft | 14 kts | 188° |
| 2026-04-21 12:58 | 58.87798 | 5.63286 | 31 ft | 16 kts | 180° |
| 2026-04-21 12:58 | 58.87682 | 5.63289 | 31 ft | 18 kts | 179° |
| 2026-04-21 12:59 | 58.87548 | 5.63292 | 31 ft | 21 kts | 180° |
| 2026-04-21 12:59 | 58.87397 | 5.63291 | 31 ft | 23 kts | 180° |
| 2026-04-21 12:59 | 58.87231 | 5.63296 | 31 ft | 25 kts | 178° |
| 2026-04-21 12:59 | 58.87053 | 5.63316 | 31 ft | 25 kts | 162° |
| 2026-04-21 13:00 | 58.86951 | 5.63539 | 34 ft | 18 kts | 94° |
| 2026-04-21 13:00 | 58.86971 | 5.63767 | 35 ft | 18 kts | 49° |
| 2026-04-21 13:00 | 58.87051 | 5.63802 | 35 ft | 16 kts | 0° |
| 2026-04-21 13:00 | 58.87447 | 5.63789 | 34 ft | 100 kts | 359° |
| 2026-04-21 13:01 | 58.88383 | 5.63761 | 45 ft | 165 kts | 359° |
| 2026-04-21 13:01 | 58.89603 | 5.63763 | 607 ft | 184 kts | 355° |
| 2026-04-21 13:01 | 58.90930 | 5.63674 | 1261 ft | 194 kts | 355° |
| 2026-04-21 13:01 | 58.92312 | 5.63491 | 1778 ft | 207 kts | 355° |
| 2026-04-21 13:02 | 58.93797 | 5.63203 | 2362 ft | 222 kts | 353° |
| 2026-04-21 13:02 | 58.95379 | 5.62571 | 2889 ft | 242 kts | 347° |
| 2026-04-21 13:02 | 58.98756 | 5.61117 | 3634 ft | 252 kts | 349° |
| 2026-04-21 13:03 | 59.00483 | 5.60443 | 3992 ft | 254 kts | 349° |
| 2026-04-21 13:03 | 59.02220 | 5.59764 | 4353 ft | 255 kts | 349° |
| 2026-04-21 13:03 | 59.03967 | 5.59074 | 4712 ft | 256 kts | 349° |
| 2026-04-21 13:03 | 59.05716 | 5.58379 | 5108 ft | 256 kts | 349° |
| 2026-04-21 13:04 | 59.07383 | 5.57708 | 6410 ft | 234 kts | 349° |
| 2026-04-21 13:04 | 59.08960 | 5.57070 | 7395 ft | 231 kts | 349° |
| 2026-04-21 13:04 | 59.10533 | 5.56432 | 8192 ft | 231 kts | 349° |
| 2026-04-21 13:04 | 59.12117 | 5.55789 | 8941 ft | 233 kts | 349° |
| 2026-04-21 13:05 | 59.13715 | 5.55139 | 9691 ft | 236 kts | 349° |
| 2026-04-21 13:05 | 59.15335 | 5.54482 | 10417 ft | 239 kts | 349° |
| 2026-04-21 13:05 | 59.16976 | 5.53814 | 11068 ft | 243 kts | 349° |
| 2026-04-21 13:05 | 59.18639 | 5.53135 | 11741 ft | 246 kts | 349° |
| 2026-04-21 13:06 | 59.20323 | 5.52446 | 12407 ft | 249 kts | 349° |
| 2026-04-21 13:06 | 59.22029 | 5.51745 | 13059 ft | 253 kts | 348° |
| 2026-04-21 13:06 | 59.23764 | 5.51027 | 13713 ft | 256 kts | 348° |
| 2026-04-21 13:06 | 59.25519 | 5.50304 | 14362 ft | 260 kts | 348° |
| 2026-04-21 13:07 | 59.27299 | 5.49571 | 14949 ft | 263 kts | 348° |
| 2026-04-21 13:07 | 59.29099 | 5.48831 | 15539 ft | 266 kts | 349° |
| 2026-04-21 13:07 | 59.30919 | 5.48081 | 16134 ft | 269 kts | 349° |
| 2026-04-21 13:07 | 59.32791 | 5.47311 | 16455 ft | 284 kts | 349° |
| 2026-04-21 13:08 | 59.34807 | 5.46481 | 16513 ft | 308 kts | 349° |
| 2026-04-21 13:08 | 59.36987 | 5.45582 | 16519 ft | 332 kts | 349° |
| 2026-04-21 13:08 | 59.39325 | 5.44616 | 16517 ft | 355 kts | 348° |
| 2026-04-21 13:08 | 59.41813 | 5.43584 | 16517 ft | 376 kts | 348° |
| 2026-04-21 13:09 | 59.44438 | 5.42493 | 16520 ft | 395 kts | 349° |
| 2026-04-21 13:09 | 59.47186 | 5.41349 | 16495 ft | 407 kts | 349° |
| 2026-04-21 13:09 | 59.49947 | 5.40199 | 15987 ft | 403 kts | 348° |
| 2026-04-21 13:09 | 59.52676 | 5.39060 | 15486 ft | 399 kts | 348° |
| 2026-04-21 13:10 | 59.55376 | 5.37933 | 14988 ft | 395 kts | 348° |
| 2026-04-21 13:10 | 59.58055 | 5.36814 | 14495 ft | 392 kts | 348° |
| 2026-04-21 13:10 | 59.60714 | 5.35697 | 13964 ft | 389 kts | 348° |
| 2026-04-21 13:10 | 59.63349 | 5.34588 | 13428 ft | 386 kts | 348° |
| 2026-04-21 13:11 | 59.65961 | 5.33496 | 12900 ft | 382 kts | 348° |
| 2026-04-21 13:11 | 59.68552 | 5.32415 | 12378 ft | 379 kts | 348° |
| 2026-04-21 13:11 | 59.71123 | 5.31338 | 11863 ft | 376 kts | 348° |
| 2026-04-21 13:11 | 59.73668 | 5.30266 | 11366 ft | 373 kts | 347° |
| 2026-04-21 13:12 | 59.76192 | 5.29193 | 10864 ft | 369 kts | 347° |
| 2026-04-21 13:12 | 59.78694 | 5.28124 | 10389 ft | 366 kts | 347° |
| 2026-04-21 13:12 | 59.81174 | 5.27062 | 9839 ft | 364 kts | 347° |
| 2026-04-21 13:12 | 59.83638 | 5.26007 | 9306 ft | 360 kts | 347° |
| 2026-04-21 13:13 | 59.86068 | 5.24968 | 8771 ft | 354 kts | 348° |
| 2026-04-21 13:13 | 59.88453 | 5.23953 | 8265 ft | 347 kts | 348° |
| 2026-04-21 13:13 | 59.90762 | 5.22974 | 7879 ft | 328 kts | 348° |
| 2026-04-21 13:13 | 59.92927 | 5.22051 | 7506 ft | 309 kts | 348° |
| 2026-04-21 13:14 | 59.94968 | 5.21176 | 7139 ft | 292 kts | 348° |
| 2026-04-21 13:14 | 59.96900 | 5.20346 | 6758 ft | 277 kts | 348° |
| 2026-04-21 13:14 | 59.98742 | 5.19553 | 6366 ft | 265 kts | 348° |
| 2026-04-21 13:14 | 60.00509 | 5.18794 | 5982 ft | 255 kts | 348° |
| 2026-04-21 13:15 | 60.02221 | 5.18057 | 5597 ft | 247 kts | 348° |
| 2026-04-21 13:15 | 60.03876 | 5.17347 | 5210 ft | 239 kts | 349° |
| 2026-04-21 13:15 | 60.05487 | 5.16942 | 4820 ft | 229 kts | 4° |
| 2026-04-21 13:15 | 60.06987 | 5.17646 | 4436 ft | 223 kts | 24° |
| 2026-04-21 13:16 | 60.08253 | 5.19376 | 4056 ft | 222 kts | 45° |
| 2026-04-21 13:16 | 60.09149 | 5.21913 | 3680 ft | 226 kts | 59° |
| 2026-04-21 13:16 | 60.10050 | 5.24491 | 3290 ft | 228 kts | 44° |
| 2026-04-21 13:16 | 60.11339 | 5.26289 | 3011 ft | 224 kts | 22° |
| 2026-04-21 13:17 | 60.12805 | 5.27042 | 3005 ft | 212 kts | 4° |
| 2026-04-21 13:17 | 60.14226 | 5.26866 | 2945 ft | 200 kts | 352° |
| 2026-04-21 13:17 | 60.15577 | 5.26415 | 2758 ft | 194 kts | 351° |
| 2026-04-21 13:17 | 60.16895 | 5.25974 | 2482 ft | 190 kts | 351° |
| 2026-04-21 13:18 | 60.18184 | 5.25543 | 2223 ft | 186 kts | 351° |
| 2026-04-21 13:18 | 60.19445 | 5.25123 | 1964 ft | 181 kts | 351° |
| 2026-04-21 13:18 | 60.20647 | 5.24722 | 1727 ft | 170 kts | 350° |
| 2026-04-21 13:18 | 60.21783 | 5.24343 | 1497 ft | 161 kts | 350° |
| 2026-04-21 13:19 | 60.22849 | 5.23987 | 1291 ft | 148 kts | 350° |
| 2026-04-21 13:19 | 60.23826 | 5.23660 | 1101 ft | 138 kts | 349° |
| 2026-04-21 13:19 | 60.24445 | 5.23453 | 978 ft | 134 kts | 348° |
| 2026-04-21 13:19 | 60.25665 | 5.23045 | 741 ft | 134 kts | 349° |
| 2026-04-21 13:20 | 60.26272 | 5.22836 | 603 ft | 133 kts | 349° |
| 2026-04-21 13:20 | 60.27172 | 5.22550 | 435 ft | 130 kts | 348° |
| 2026-04-21 13:20 | 60.28083 | 5.22238 | 262 ft | 133 kts | 348° |
| 2026-04-21 13:20 | 60.28943 | 5.21948 | 176 ft | 111 kts | 349° |
| 2026-04-21 13:21 | 60.29534 | 5.21747 | 172 ft | 54 kts | 351° |
| 2026-04-21 13:21 | 60.29691 | 5.21740 | 174 ft | 17 kts | 39° |
| 2026-04-21 13:21 | 60.29713 | 5.21969 | 170 ft | 17 kts | 116° |
| 2026-04-21 13:21 | 60.29602 | 5.22044 | 171 ft | 18 kts | 169° |